sensor_id;sensor_type;location;lat;lon;timestamp;P1;durP1;ratioP1;P2;durP2;ratioP2
37831;SDS011;23671;38.090;-122.570;2023-07-24T00:01:35;3.73;;;1.97;;
37831;SDS011;23671;38.090;-122.570;2023-07-24T00:04:04;3.72;;;1.88;;
37831;SDS011;23671;38.090;-122.570;2023-07-24T00:06:34;5.50;;;1.95;;
37831;SDS011;23671;38.090;-122.570;2023-07-24T00:09:04;4.47;;;1.85;;
37831;SDS011;23671;38.090;-122.570;2023-07-24T00:11:31;5.47;;;1.70;;
37831;SDS011;23671;38.090;-122.570;2023-07-24T00:14:14;3.42;;;1.98;;
37831;SDS011;23671;38.090;-122.570;2023-07-24T00:16:51;4.75;;;2.20;;
37831;SDS011;23671;38.090;-122.570;2023-07-24T00:19:18;3.63;;;2.17;;
37831;SDS011;23671;38.090;-122.570;2023-07-24T00:22:16;4.57;;;2.42;;
37831;SDS011;23671;38.090;-122.570;2023-07-24T00:24:54;3.38;;;2.30;;
37831;SDS011;23671;38.090;-122.570;2023-07-24T00:27:24;4.90;;;2.30;;
37831;SDS011;23671;38.090;-122.570;2023-07-24T00:29:54;6.53;;;3.03;;
37831;SDS011;23671;38.090;-122.570;2023-07-24T00:32:24;5.25;;;2.65;;
37831;SDS011;23671;38.090;-122.570;2023-07-24T00:34:54;4.53;;;2.35;;
37831;SDS011;23671;38.090;-122.570;2023-07-24T00:37:25;5.07;;;2.42;;
37831;SDS011;23671;38.090;-122.570;2023-07-24T00:39:54;5.18;;;2.55;;
37831;SDS011;23671;38.090;-122.570;2023-07-24T00:42:39;5.20;;;2.53;;
37831;SDS011;23671;38.090;-122.570;2023-07-24T00:45:09;7.03;;;2.53;;
37831;SDS011;23671;38.090;-122.570;2023-07-24T00:47:36;5.00;;;2.17;;
37831;SDS011;23671;38.090;-122.570;2023-07-24T00:50:04;6.53;;;2.80;;
37831;SDS011;23671;38.090;-122.570;2023-07-24T00:52:32;6.80;;;2.85;;
37831;SDS011;23671;38.090;-122.570;2023-07-24T00:54:59;6.38;;;2.50;;
37831;SDS011;23671;38.090;-122.570;2023-07-24T00:57:26;10.70;;;2.70;;
37831;SDS011;23671;38.090;-122.570;2023-07-24T00:59:53;6.85;;;2.75;;
37831;SDS011;23671;38.090;-122.570;2023-07-24T01:02:21;4.87;;;2.47;;
37831;SDS011;23671;38.090;-122.570;2023-07-24T01:04:51;5.28;;;2.20;;
37831;SDS011;23671;38.090;-122.570;2023-07-24T01:07:19;8.10;;;2.60;;
37831;SDS011;23671;38.090;-122.570;2023-07-24T01:09:47;4.13;;;2.20;;
37831;SDS011;23671;38.090;-122.570;2023-07-24T01:12:20;5.53;;;2.38;;
37831;SDS011;23671;38.090;-122.570;2023-07-24T01:14:58;3.95;;;2.03;;
37831;SDS011;23671;38.090;-122.570;2023-07-24T01:17:45;5.80;;;1.95;;
37831;SDS011;23671;38.090;-122.570;2023-07-24T01:20:17;7.35;;;2.50;;
37831;SDS011;23671;38.090;-122.570;2023-07-24T01:25:55;7.20;;;2.42;;
37831;SDS011;23671;38.090;-122.570;2023-07-24T01:28:24;4.72;;;2.35;;
37831;SDS011;23671;38.090;-122.570;2023-07-24T01:33:19;4.90;;;2.33;;
37831;SDS011;23671;38.090;-122.570;2023-07-24T01:35:50;4.07;;;1.90;;
37831;SDS011;23671;38.090;-122.570;2023-07-24T01:38:26;4.55;;;2.15;;
37831;SDS011;23671;38.090;-122.570;2023-07-24T01:40:54;6.60;;;2.60;;
37831;SDS011;23671;38.090;-122.570;2023-07-24T01:43:21;5.15;;;2.13;;
37831;SDS011;23671;38.090;-122.570;2023-07-24T01:45:52;7.28;;;2.47;;
37831;SDS011;23671;38.090;-122.570;2023-07-24T01:48:19;6.57;;;2.37;;
37831;SDS011;23671;38.090;-122.570;2023-07-24T01:50:47;6.87;;;2.50;;
37831;SDS011;23671;38.090;-122.570;2023-07-24T01:53:15;7.75;;;2.50;;
37831;SDS011;23671;38.090;-122.570;2023-07-24T01:55:42;4.65;;;2.38;;
37831;SDS011;23671;38.090;-122.570;2023-07-24T01:58:09;6.22;;;2.40;;
37831;SDS011;23671;38.090;-122.570;2023-07-24T02:00:37;6.10;;;2.92;;
37831;SDS011;23671;38.090;-122.570;2023-07-24T02:03:04;5.45;;;2.60;;
37831;SDS011;23671;38.090;-122.570;2023-07-24T02:05:31;6.90;;;2.72;;
37831;SDS011;23671;38.090;-122.570;2023-07-24T02:07:58;5.70;;;2.58;;
37831;SDS011;23671;38.090;-122.570;2023-07-24T02:10:25;6.30;;;2.70;;
37831;SDS011;23671;38.090;-122.570;2023-07-24T02:12:52;6.85;;;2.53;;
37831;SDS011;23671;38.090;-122.570;2023-07-24T02:15:20;7.20;;;2.72;;
37831;SDS011;23671;38.090;-122.570;2023-07-24T02:17:51;9.43;;;3.13;;
37831;SDS011;23671;38.090;-122.570;2023-07-24T02:20:18;6.25;;;3.05;;
37831;SDS011;23671;38.090;-122.570;2023-07-24T02:22:45;31.38;;;24.10;;
37831;SDS011;23671;38.090;-122.570;2023-07-24T02:25:12;37.13;;;24.88;;
37831;SDS011;23671;38.090;-122.570;2023-07-24T02:27:40;74.87;;;41.03;;
37831;SDS011;23671;38.090;-122.570;2023-07-24T02:30:07;338.90;;;145.70;;
37831;SDS011;23671;38.090;-122.570;2023-07-24T02:32:35;115.23;;;55.47;;
37831;SDS011;23671;38.090;-122.570;2023-07-24T02:35:02;99.70;;;46.72;;
37831;SDS011;23671;38.090;-122.570;2023-07-24T02:37:30;91.63;;;43.37;;
37831;SDS011;23671;38.090;-122.570;2023-07-24T02:39:57;81.25;;;39.45;;
37831;SDS011;23671;38.090;-122.570;2023-07-24T02:42:24;78.22;;;36.33;;
37831;SDS011;23671;38.090;-122.570;2023-07-24T02:44:51;78.78;;;35.55;;
37831;SDS011;23671;38.090;-122.570;2023-07-24T02:47:18;66.72;;;31.48;;
37831;SDS011;23671;38.090;-122.570;2023-07-24T02:49:46;60.70;;;28.60;;
37831;SDS011;23671;38.090;-122.570;2023-07-24T02:52:13;56.95;;;27.10;;
37831;SDS011;23671;38.090;-122.570;2023-07-24T02:54:40;51.05;;;23.92;;
37831;SDS011;23671;38.090;-122.570;2023-07-24T02:57:07;46.42;;;23.42;;
37831;SDS011;23671;38.090;-122.570;2023-07-24T02:59:34;48.03;;;21.63;;
37831;SDS011;23671;38.090;-122.570;2023-07-24T03:02:01;39.83;;;18.90;;
37831;SDS011;23671;38.090;-122.570;2023-07-24T03:04:29;39.30;;;19.23;;
37831;SDS011;23671;38.090;-122.570;2023-07-24T03:06:56;35.72;;;17.10;;
37831;SDS011;23671;38.090;-122.570;2023-07-24T03:09:23;31.90;;;15.43;;
37831;SDS011;23671;38.090;-122.570;2023-07-24T03:11:50;29.58;;;13.68;;
37831;SDS011;23671;38.090;-122.570;2023-07-24T03:14:17;30.75;;;13.27;;
37831;SDS011;23671;38.090;-122.570;2023-07-24T03:16:44;26.98;;;12.55;;
37831;SDS011;23671;38.090;-122.570;2023-07-24T03:19:11;23.80;;;11.63;;
37831;SDS011;23671;38.090;-122.570;2023-07-24T03:21:38;22.35;;;9.93;;
37831;SDS011;23671;38.090;-122.570;2023-07-24T03:24:05;21.85;;;9.60;;
37831;SDS011;23671;38.090;-122.570;2023-07-24T03:26:32;17.60;;;9.07;;
37831;SDS011;23671;38.090;-122.570;2023-07-24T03:28:59;19.58;;;8.18;;
37831;SDS011;23671;38.090;-122.570;2023-07-24T03:31:26;18.55;;;7.47;;
37831;SDS011;23671;38.090;-122.570;2023-07-24T03:33:53;15.30;;;7.35;;
37831;SDS011;23671;38.090;-122.570;2023-07-24T03:36:20;17.90;;;7.20;;
37831;SDS011;23671;38.090;-122.570;2023-07-24T03:38:48;14.82;;;6.68;;
37831;SDS011;23671;38.090;-122.570;2023-07-24T03:41:15;14.07;;;5.95;;
37831;SDS011;23671;38.090;-122.570;2023-07-24T03:43:42;13.13;;;6.20;;
37831;SDS011;23671;38.090;-122.570;2023-07-24T03:46:09;12.80;;;5.78;;
37831;SDS011;23671;38.090;-122.570;2023-07-24T03:48:36;14.45;;;5.55;;
37831;SDS011;23671;38.090;-122.570;2023-07-24T03:51:03;12.63;;;5.20;;
37831;SDS011;23671;38.090;-122.570;2023-07-24T03:53:30;11.52;;;4.90;;
37831;SDS011;23671;38.090;-122.570;2023-07-24T03:55:57;15.00;;;5.15;;
37831;SDS011;23671;38.090;-122.570;2023-07-24T03:58:25;14.68;;;5.57;;
37831;SDS011;23671;38.090;-122.570;2023-07-24T04:00:52;13.00;;;5.40;;
37831;SDS011;23671;38.090;-122.570;2023-07-24T04:03:19;10.85;;;4.80;;
37831;SDS011;23671;38.090;-122.570;2023-07-24T04:05:46;12.13;;;4.45;;
37831;SDS011;23671;38.090;-122.570;2023-07-24T04:08:13;11.93;;;4.80;;
37831;SDS011;23671;38.090;-122.570;2023-07-24T04:10:40;10.65;;;4.25;;
37831;SDS011;23671;38.090;-122.570;2023-07-24T04:13:07;12.50;;;4.63;;
37831;SDS011;23671;38.090;-122.570;2023-07-24T04:15:34;10.27;;;4.50;;
37831;SDS011;23671;38.090;-122.570;2023-07-24T04:18:01;7.45;;;3.55;;
37831;SDS011;23671;38.090;-122.570;2023-07-24T04:20:29;12.85;;;4.22;;
37831;SDS011;23671;38.090;-122.570;2023-07-24T04:22:56;11.07;;;4.40;;
37831;SDS011;23671;38.090;-122.570;2023-07-24T04:25:23;11.98;;;4.50;;
37831;SDS011;23671;38.090;-122.570;2023-07-24T04:27:50;10.40;;;4.30;;
37831;SDS011;23671;38.090;-122.570;2023-07-24T04:30:17;10.70;;;3.72;;
37831;SDS011;23671;38.090;-122.570;2023-07-24T04:32:44;13.63;;;4.10;;
37831;SDS011;23671;38.090;-122.570;2023-07-24T04:35:11;10.73;;;4.30;;
37831;SDS011;23671;38.090;-122.570;2023-07-24T04:37:38;10.13;;;3.88;;
37831;SDS011;23671;38.090;-122.570;2023-07-24T04:40:06;7.78;;;3.28;;
37831;SDS011;23671;38.090;-122.570;2023-07-24T04:42:33;8.17;;;3.47;;
37831;SDS011;23671;38.090;-122.570;2023-07-24T04:45:00;9.20;;;3.72;;
37831;SDS011;23671;38.090;-122.570;2023-07-24T04:47:28;8.63;;;3.90;;
37831;SDS011;23671;38.090;-122.570;2023-07-24T04:49:55;8.68;;;3.80;;
37831;SDS011;23671;38.090;-122.570;2023-07-24T04:52:22;8.88;;;3.70;;
37831;SDS011;23671;38.090;-122.570;2023-07-24T04:54:49;9.13;;;4.03;;
37831;SDS011;23671;38.090;-122.570;2023-07-24T04:57:16;11.05;;;3.75;;
37831;SDS011;23671;38.090;-122.570;2023-07-24T04:59:43;9.18;;;3.78;;
37831;SDS011;23671;38.090;-122.570;2023-07-24T05:02:13;8.88;;;3.83;;
37831;SDS011;23671;38.090;-122.570;2023-07-24T05:04:41;13.05;;;3.95;;
37831;SDS011;23671;38.090;-122.570;2023-07-24T05:07:08;7.05;;;3.65;;
37831;SDS011;23671;38.090;-122.570;2023-07-24T05:09:35;9.45;;;3.45;;
37831;SDS011;23671;38.090;-122.570;2023-07-24T05:12:02;7.85;;;3.70;;
37831;SDS011;23671;38.090;-122.570;2023-07-24T05:14:29;8.93;;;3.38;;
37831;SDS011;23671;38.090;-122.570;2023-07-24T05:16:56;8.32;;;3.28;;
37831;SDS011;23671;38.090;-122.570;2023-07-24T05:19:23;7.25;;;3.47;;
37831;SDS011;23671;38.090;-122.570;2023-07-24T05:21:50;10.82;;;3.78;;
37831;SDS011;23671;38.090;-122.570;2023-07-24T05:24:17;7.57;;;3.38;;
37831;SDS011;23671;38.090;-122.570;2023-07-24T05:26:44;8.20;;;3.40;;
37831;SDS011;23671;38.090;-122.570;2023-07-24T05:29:12;8.25;;;3.72;;
37831;SDS011;23671;38.090;-122.570;2023-07-24T05:31:39;6.95;;;3.33;;
37831;SDS011;23671;38.090;-122.570;2023-07-24T05:34:06;8.50;;;3.47;;
37831;SDS011;23671;38.090;-122.570;2023-07-24T05:36:40;7.90;;;3.85;;
37831;SDS011;23671;38.090;-122.570;2023-07-24T05:39:07;8.32;;;4.30;;
37831;SDS011;23671;38.090;-122.570;2023-07-24T05:41:34;6.85;;;3.40;;
37831;SDS011;23671;38.090;-122.570;2023-07-24T05:44:01;9.25;;;3.75;;
37831;SDS011;23671;38.090;-122.570;2023-07-24T05:46:28;7.22;;;3.40;;
37831;SDS011;23671;38.090;-122.570;2023-07-24T05:49:01;9.13;;;3.80;;
37831;SDS011;23671;38.090;-122.570;2023-07-24T05:51:28;7.50;;;3.70;;
37831;SDS011;23671;38.090;-122.570;2023-07-24T05:53:55;9.40;;;3.95;;
37831;SDS011;23671;38.090;-122.570;2023-07-24T05:56:22;7.78;;;3.47;;
37831;SDS011;23671;38.090;-122.570;2023-07-24T05:58:50;8.57;;;3.83;;
37831;SDS011;23671;38.090;-122.570;2023-07-24T06:01:17;8.77;;;3.75;;
37831;SDS011;23671;38.090;-122.570;2023-07-24T06:03:44;9.32;;;4.10;;
37831;SDS011;23671;38.090;-122.570;2023-07-24T06:06:11;8.13;;;3.33;;
37831;SDS011;23671;38.090;-122.570;2023-07-24T06:08:38;7.43;;;3.65;;
37831;SDS011;23671;38.090;-122.570;2023-07-24T06:11:05;7.32;;;3.75;;
37831;SDS011;23671;38.090;-122.570;2023-07-24T06:13:32;9.77;;;3.38;;
37831;SDS011;23671;38.090;-122.570;2023-07-24T06:15:59;9.52;;;3.80;;
37831;SDS011;23671;38.090;-122.570;2023-07-24T06:18:26;8.23;;;3.53;;
37831;SDS011;23671;38.090;-122.570;2023-07-24T06:20:56;8.63;;;3.17;;
37831;SDS011;23671;38.090;-122.570;2023-07-24T06:23:23;11.35;;;3.60;;
37831;SDS011;23671;38.090;-122.570;2023-07-24T06:25:50;9.52;;;4.05;;
37831;SDS011;23671;38.090;-122.570;2023-07-24T06:28:18;7.13;;;3.80;;
37831;SDS011;23671;38.090;-122.570;2023-07-24T06:30:45;7.57;;;3.92;;
37831;SDS011;23671;38.090;-122.570;2023-07-24T06:33:12;8.65;;;3.42;;
37831;SDS011;23671;38.090;-122.570;2023-07-24T06:35:39;7.97;;;3.60;;
37831;SDS011;23671;38.090;-122.570;2023-07-24T06:38:07;5.47;;;3.20;;
37831;SDS011;23671;38.090;-122.570;2023-07-24T06:40:34;7.78;;;3.22;;
37831;SDS011;23671;38.090;-122.570;2023-07-24T06:43:01;9.43;;;3.28;;
37831;SDS011;23671;38.090;-122.570;2023-07-24T06:45:28;8.00;;;3.58;;
37831;SDS011;23671;38.090;-122.570;2023-07-24T06:47:55;9.15;;;4.25;;
37831;SDS011;23671;38.090;-122.570;2023-07-24T06:50:22;5.53;;;3.15;;
37831;SDS011;23671;38.090;-122.570;2023-07-24T06:52:49;7.13;;;3.13;;
37831;SDS011;23671;38.090;-122.570;2023-07-24T06:55:24;7.28;;;3.58;;
37831;SDS011;23671;38.090;-122.570;2023-07-24T06:57:51;9.00;;;3.70;;
37831;SDS011;23671;38.090;-122.570;2023-07-24T07:00:18;7.13;;;3.60;;
37831;SDS011;23671;38.090;-122.570;2023-07-24T07:02:47;8.13;;;2.97;;
37831;SDS011;23671;38.090;-122.570;2023-07-24T07:05:14;7.63;;;3.17;;
37831;SDS011;23671;38.090;-122.570;2023-07-24T07:07:41;9.43;;;3.67;;
37831;SDS011;23671;38.090;-122.570;2023-07-24T07:10:08;8.35;;;3.90;;
37831;SDS011;23671;38.090;-122.570;2023-07-24T07:12:36;10.32;;;4.45;;
37831;SDS011;23671;38.090;-122.570;2023-07-24T07:15:03;9.27;;;3.75;;
37831;SDS011;23671;38.090;-122.570;2023-07-24T07:17:30;7.72;;;3.30;;
37831;SDS011;23671;38.090;-122.570;2023-07-24T07:19:57;11.15;;;3.92;;
37831;SDS011;23671;38.090;-122.570;2023-07-24T07:22:24;10.07;;;3.58;;
37831;SDS011;23671;38.090;-122.570;2023-07-24T07:24:51;6.28;;;3.35;;
37831;SDS011;23671;38.090;-122.570;2023-07-24T07:27:22;7.55;;;3.22;;
37831;SDS011;23671;38.090;-122.570;2023-07-24T07:29:49;6.20;;;3.35;;
37831;SDS011;23671;38.090;-122.570;2023-07-24T07:32:16;8.48;;;3.58;;
37831;SDS011;23671;38.090;-122.570;2023-07-24T07:34:43;8.15;;;3.58;;
37831;SDS011;23671;38.090;-122.570;2023-07-24T07:37:10;7.05;;;3.10;;
37831;SDS011;23671;38.090;-122.570;2023-07-24T07:39:37;8.75;;;3.45;;
37831;SDS011;23671;38.090;-122.570;2023-07-24T07:42:04;8.15;;;3.35;;
37831;SDS011;23671;38.090;-122.570;2023-07-24T07:44:31;8.60;;;3.65;;
37831;SDS011;23671;38.090;-122.570;2023-07-24T07:46:58;7.88;;;3.42;;
37831;SDS011;23671;38.090;-122.570;2023-07-24T07:49:25;7.15;;;3.53;;
37831;SDS011;23671;38.090;-122.570;2023-07-24T07:51:52;7.50;;;3.53;;
37831;SDS011;23671;38.090;-122.570;2023-07-24T07:54:19;9.65;;;3.65;;
37831;SDS011;23671;38.090;-122.570;2023-07-24T07:56:49;8.10;;;3.47;;
37831;SDS011;23671;38.090;-122.570;2023-07-24T07:59:18;8.43;;;3.80;;
37831;SDS011;23671;38.090;-122.570;2023-07-24T08:01:45;7.18;;;3.58;;
37831;SDS011;23671;38.090;-122.570;2023-07-24T08:04:12;7.22;;;3.55;;
37831;SDS011;23671;38.090;-122.570;2023-07-24T08:06:39;6.35;;;3.15;;
37831;SDS011;23671;38.090;-122.570;2023-07-24T08:09:06;9.98;;;3.40;;
37831;SDS011;23671;38.090;-122.570;2023-07-24T08:11:33;9.05;;;3.83;;
37831;SDS011;23671;38.090;-122.570;2023-07-24T08:14:03;10.10;;;3.58;;
37831;SDS011;23671;38.090;-122.570;2023-07-24T08:16:31;9.35;;;3.33;;
37831;SDS011;23671;38.090;-122.570;2023-07-24T08:18:58;9.18;;;4.00;;
37831;SDS011;23671;38.090;-122.570;2023-07-24T08:21:25;8.07;;;3.40;;
37831;SDS011;23671;38.090;-122.570;2023-07-24T08:23:52;7.75;;;3.28;;
37831;SDS011;23671;38.090;-122.570;2023-07-24T08:26:19;11.20;;;3.60;;
37831;SDS011;23671;38.090;-122.570;2023-07-24T08:28:46;10.02;;;3.70;;
37831;SDS011;23671;38.090;-122.570;2023-07-24T08:31:13;7.18;;;3.08;;
37831;SDS011;23671;38.090;-122.570;2023-07-24T08:33:40;6.68;;;3.30;;
37831;SDS011;23671;38.090;-122.570;2023-07-24T08:36:07;5.90;;;3.13;;
37831;SDS011;23671;38.090;-122.570;2023-07-24T08:38:36;7.03;;;3.17;;
37831;SDS011;23671;38.090;-122.570;2023-07-24T08:41:05;8.48;;;3.50;;
37831;SDS011;23671;38.090;-122.570;2023-07-24T08:43:34;8.63;;;3.10;;
37831;SDS011;23671;38.090;-122.570;2023-07-24T08:48:30;7.25;;;3.15;;
37831;SDS011;23671;38.090;-122.570;2023-07-24T08:51:11;7.07;;;3.25;;
37831;SDS011;23671;38.090;-122.570;2023-07-24T08:53:42;8.35;;;3.25;;
37831;SDS011;23671;38.090;-122.570;2023-07-24T08:56:10;6.10;;;3.23;;
37831;SDS011;23671;38.090;-122.570;2023-07-24T08:58:38;8.65;;;2.97;;
37831;SDS011;23671;38.090;-122.570;2023-07-24T09:01:05;7.68;;;3.10;;
37831;SDS011;23671;38.090;-122.570;2023-07-24T09:03:33;6.45;;;3.03;;
37831;SDS011;23671;38.090;-122.570;2023-07-24T09:06:01;8.68;;;3.30;;
37831;SDS011;23671;38.090;-122.570;2023-07-24T09:08:41;8.13;;;3.63;;
37831;SDS011;23671;38.090;-122.570;2023-07-24T09:11:09;7.38;;;3.20;;
37831;SDS011;23671;38.090;-122.570;2023-07-24T09:13:41;6.68;;;3.05;;
37831;SDS011;23671;38.090;-122.570;2023-07-24T09:16:09;9.63;;;3.75;;
37831;SDS011;23671;38.090;-122.570;2023-07-24T09:18:50;8.20;;;3.05;;
37831;SDS011;23671;38.090;-122.570;2023-07-24T09:21:30;5.80;;;3.15;;
37831;SDS011;23671;38.090;-122.570;2023-07-24T09:24:08;5.63;;;2.70;;
37831;SDS011;23671;38.090;-122.570;2023-07-24T09:26:49;6.65;;;3.40;;
37831;SDS011;23671;38.090;-122.570;2023-07-24T09:29:17;9.02;;;3.33;;
37831;SDS011;23671;38.090;-122.570;2023-07-24T09:31:48;7.37;;;2.80;;
37831;SDS011;23671;38.090;-122.570;2023-07-24T09:34:15;8.00;;;3.15;;
37831;SDS011;23671;38.090;-122.570;2023-07-24T09:36:45;8.13;;;2.88;;
37831;SDS011;23671;38.090;-122.570;2023-07-24T09:39:12;6.05;;;2.47;;
37831;SDS011;23671;38.090;-122.570;2023-07-24T09:41:39;8.32;;;2.92;;
37831;SDS011;23671;38.090;-122.570;2023-07-24T09:44:11;5.55;;;2.60;;
37831;SDS011;23671;38.090;-122.570;2023-07-24T09:46:38;6.88;;;3.17;;
37831;SDS011;23671;38.090;-122.570;2023-07-24T09:49:06;9.38;;;3.40;;
37831;SDS011;23671;38.090;-122.570;2023-07-24T09:51:33;7.82;;;2.97;;
37831;SDS011;23671;38.090;-122.570;2023-07-24T09:54:06;9.43;;;3.40;;
37831;SDS011;23671;38.090;-122.570;2023-07-24T09:56:48;7.43;;;2.90;;
37831;SDS011;23671;38.090;-122.570;2023-07-24T09:59:17;8.20;;;3.47;;
37831;SDS011;23671;38.090;-122.570;2023-07-24T10:01:46;6.68;;;2.83;;
37831;SDS011;23671;38.090;-122.570;2023-07-24T10:04:16;6.18;;;2.85;;
37831;SDS011;23671;38.090;-122.570;2023-07-24T10:06:45;4.97;;;2.83;;
37831;SDS011;23671;38.090;-122.570;2023-07-24T10:09:13;7.35;;;2.55;;
37831;SDS011;23671;38.090;-122.570;2023-07-24T10:11:44;6.40;;;2.47;;
37831;SDS011;23671;38.090;-122.570;2023-07-24T10:14:11;7.78;;;3.10;;
37831;SDS011;23671;38.090;-122.570;2023-07-24T10:16:38;6.65;;;2.30;;
37831;SDS011;23671;38.090;-122.570;2023-07-24T10:19:15;5.10;;;2.50;;
37831;SDS011;23671;38.090;-122.570;2023-07-24T10:21:46;6.65;;;2.65;;
37831;SDS011;23671;38.090;-122.570;2023-07-24T10:24:17;6.10;;;2.65;;
37831;SDS011;23671;38.090;-122.570;2023-07-24T10:26:49;6.00;;;2.80;;
37831;SDS011;23671;38.090;-122.570;2023-07-24T10:29:20;7.50;;;2.88;;
37831;SDS011;23671;38.090;-122.570;2023-07-24T10:31:53;5.70;;;2.50;;
37831;SDS011;23671;38.090;-122.570;2023-07-24T10:34:20;4.63;;;2.70;;
37831;SDS011;23671;38.090;-122.570;2023-07-24T10:36:48;4.82;;;2.22;;
37831;SDS011;23671;38.090;-122.570;2023-07-24T10:39:15;6.10;;;2.55;;
37831;SDS011;23671;38.090;-122.570;2023-07-24T10:41:46;5.97;;;2.35;;
37831;SDS011;23671;38.090;-122.570;2023-07-24T10:44:14;6.70;;;2.65;;
37831;SDS011;23671;38.090;-122.570;2023-07-24T10:46:41;5.70;;;2.35;;
37831;SDS011;23671;38.090;-122.570;2023-07-24T10:49:08;5.78;;;2.55;;
37831;SDS011;23671;38.090;-122.570;2023-07-24T10:51:36;4.72;;;2.10;;
37831;SDS011;23671;38.090;-122.570;2023-07-24T10:54:04;4.97;;;2.40;;
37831;SDS011;23671;38.090;-122.570;2023-07-24T10:56:32;8.55;;;2.65;;
37831;SDS011;23671;38.090;-122.570;2023-07-24T10:59:02;7.60;;;2.90;;
37831;SDS011;23671;38.090;-122.570;2023-07-24T11:01:30;6.33;;;2.83;;
37831;SDS011;23671;38.090;-122.570;2023-07-24T11:03:58;5.30;;;2.67;;
37831;SDS011;23671;38.090;-122.570;2023-07-24T11:06:26;7.55;;;2.80;;
37831;SDS011;23671;38.090;-122.570;2023-07-24T11:08:54;4.30;;;2.22;;
37831;SDS011;23671;38.090;-122.570;2023-07-24T11:13:56;5.57;;;2.40;;
37831;SDS011;23671;38.090;-122.570;2023-07-24T11:16:23;5.47;;;2.33;;
37831;SDS011;23671;38.090;-122.570;2023-07-24T11:18:50;4.05;;;2.20;;
37831;SDS011;23671;38.090;-122.570;2023-07-24T11:21:18;6.72;;;2.72;;
37831;SDS011;23671;38.090;-122.570;2023-07-24T11:23:46;5.50;;;2.58;;
37831;SDS011;23671;38.090;-122.570;2023-07-24T11:26:21;3.40;;;2.22;;
37831;SDS011;23671;38.090;-122.570;2023-07-24T11:28:50;4.82;;;2.33;;
37831;SDS011;23671;38.090;-122.570;2023-07-24T11:31:18;4.87;;;2.20;;
37831;SDS011;23671;38.090;-122.570;2023-07-24T11:33:48;4.63;;;2.15;;
37831;SDS011;23671;38.090;-122.570;2023-07-24T11:36:17;4.25;;;2.70;;
37831;SDS011;23671;38.090;-122.570;2023-07-24T11:38:48;5.70;;;2.72;;
37831;SDS011;23671;38.090;-122.570;2023-07-24T11:41:16;6.57;;;2.25;;
37831;SDS011;23671;38.090;-122.570;2023-07-24T11:43:46;5.95;;;2.42;;
37831;SDS011;23671;38.090;-122.570;2023-07-24T11:46:22;4.53;;;1.95;;
37831;SDS011;23671;38.090;-122.570;2023-07-24T11:48:50;5.28;;;2.55;;
37831;SDS011;23671;38.090;-122.570;2023-07-24T11:51:19;4.78;;;2.20;;
37831;SDS011;23671;38.090;-122.570;2023-07-24T11:53:46;5.07;;;2.10;;
37831;SDS011;23671;38.090;-122.570;2023-07-24T11:56:14;3.05;;;1.90;;
37831;SDS011;23671;38.090;-122.570;2023-07-24T11:58:42;5.43;;;2.25;;
37831;SDS011;23671;38.090;-122.570;2023-07-24T12:01:11;2.85;;;1.75;;
37831;SDS011;23671;38.090;-122.570;2023-07-24T12:03:39;3.63;;;1.70;;
37831;SDS011;23671;38.090;-122.570;2023-07-24T12:06:13;5.95;;;2.13;;
37831;SDS011;23671;38.090;-122.570;2023-07-24T12:08:42;3.10;;;1.80;;
37831;SDS011;23671;38.090;-122.570;2023-07-24T12:11:16;3.42;;;1.90;;
37831;SDS011;23671;38.090;-122.570;2023-07-24T12:13:46;3.55;;;2.00;;
37831;SDS011;23671;38.090;-122.570;2023-07-24T12:16:15;6.97;;;2.30;;
37831;SDS011;23671;38.090;-122.570;2023-07-24T12:18:43;3.25;;;2.30;;
37831;SDS011;23671;38.090;-122.570;2023-07-24T12:21:10;3.70;;;1.92;;
37831;SDS011;23671;38.090;-122.570;2023-07-24T12:23:38;2.00;;;1.45;;
37831;SDS011;23671;38.090;-122.570;2023-07-24T12:26:05;5.43;;;2.17;;
37831;SDS011;23671;38.090;-122.570;2023-07-24T12:28:32;4.82;;;2.13;;
37831;SDS011;23671;38.090;-122.570;2023-07-24T12:31:00;4.78;;;2.00;;
37831;SDS011;23671;38.090;-122.570;2023-07-24T12:33:27;5.40;;;2.00;;
37831;SDS011;23671;38.090;-122.570;2023-07-24T12:35:54;4.45;;;2.10;;
37831;SDS011;23671;38.090;-122.570;2023-07-24T12:38:21;3.40;;;1.50;;
37831;SDS011;23671;38.090;-122.570;2023-07-24T12:40:48;5.05;;;2.00;;
37831;SDS011;23671;38.090;-122.570;2023-07-24T12:43:15;4.95;;;1.67;;
37831;SDS011;23671;38.090;-122.570;2023-07-24T12:45:42;4.90;;;2.13;;
37831;SDS011;23671;38.090;-122.570;2023-07-24T12:48:09;4.13;;;1.90;;
37831;SDS011;23671;38.090;-122.570;2023-07-24T12:50:36;4.57;;;2.08;;
37831;SDS011;23671;38.090;-122.570;2023-07-24T12:53:04;3.65;;;1.80;;
37831;SDS011;23671;38.090;-122.570;2023-07-24T12:55:31;3.95;;;1.55;;
37831;SDS011;23671;38.090;-122.570;2023-07-24T12:57:58;3.28;;;1.70;;
37831;SDS011;23671;38.090;-122.570;2023-07-24T13:00:27;3.35;;;1.80;;
37831;SDS011;23671;38.090;-122.570;2023-07-24T13:02:55;4.53;;;2.05;;
37831;SDS011;23671;38.090;-122.570;2023-07-24T13:05:22;3.97;;;2.10;;
37831;SDS011;23671;38.090;-122.570;2023-07-24T13:07:49;3.42;;;1.90;;
37831;SDS011;23671;38.090;-122.570;2023-07-24T13:10:16;4.45;;;1.92;;
37831;SDS011;23671;38.090;-122.570;2023-07-24T13:12:43;3.35;;;2.13;;
37831;SDS011;23671;38.090;-122.570;2023-07-24T13:15:10;4.47;;;2.35;;
37831;SDS011;23671;38.090;-122.570;2023-07-24T13:17:37;3.35;;;2.05;;
37831;SDS011;23671;38.090;-122.570;2023-07-24T13:20:05;3.47;;;1.90;;
37831;SDS011;23671;38.090;-122.570;2023-07-24T13:22:32;3.38;;;1.90;;
37831;SDS011;23671;38.090;-122.570;2023-07-24T13:24:59;3.88;;;2.10;;
37831;SDS011;23671;38.090;-122.570;2023-07-24T13:27:26;3.35;;;1.50;;
37831;SDS011;23671;38.090;-122.570;2023-07-24T13:29:53;3.97;;;1.90;;
37831;SDS011;23671;38.090;-122.570;2023-07-24T13:32:20;4.90;;;2.45;;
37831;SDS011;23671;38.090;-122.570;2023-07-24T13:34:48;4.25;;;2.17;;
37831;SDS011;23671;38.090;-122.570;2023-07-24T13:37:15;2.22;;;1.73;;
37831;SDS011;23671;38.090;-122.570;2023-07-24T13:39:42;3.00;;;1.80;;
37831;SDS011;23671;38.090;-122.570;2023-07-24T13:42:09;3.50;;;2.10;;
37831;SDS011;23671;38.090;-122.570;2023-07-24T13:44:36;5.53;;;2.10;;
37831;SDS011;23671;38.090;-122.570;2023-07-24T13:47:03;3.63;;;1.83;;
37831;SDS011;23671;38.090;-122.570;2023-07-24T13:49:30;2.88;;;1.65;;
37831;SDS011;23671;38.090;-122.570;2023-07-24T13:51:57;4.00;;;1.80;;
37831;SDS011;23671;38.090;-122.570;2023-07-24T13:54:24;4.07;;;1.85;;
37831;SDS011;23671;38.090;-122.570;2023-07-24T13:56:52;3.72;;;1.80;;
37831;SDS011;23671;38.090;-122.570;2023-07-24T13:59:19;3.53;;;1.83;;
37831;SDS011;23671;38.090;-122.570;2023-07-24T14:01:46;2.38;;;1.70;;
37831;SDS011;23671;38.090;-122.570;2023-07-24T14:04:13;3.55;;;2.00;;
37831;SDS011;23671;38.090;-122.570;2023-07-24T14:06:40;3.42;;;1.63;;
37831;SDS011;23671;38.090;-122.570;2023-07-24T14:09:07;2.83;;;1.50;;
37831;SDS011;23671;38.090;-122.570;2023-07-24T14:11:34;3.38;;;1.90;;
37831;SDS011;23671;38.090;-122.570;2023-07-24T14:14:01;3.95;;;2.03;;
37831;SDS011;23671;38.090;-122.570;2023-07-24T14:16:28;4.07;;;1.50;;
37831;SDS011;23671;38.090;-122.570;2023-07-24T14:18:55;2.72;;;1.60;;
37831;SDS011;23671;38.090;-122.570;2023-07-24T14:21:22;2.45;;;1.60;;
37831;SDS011;23671;38.090;-122.570;2023-07-24T14:23:49;4.25;;;1.70;;